createdAt,value
2019-04-22T00:01:56.953Z,32.25
2019-04-22T00:07:22.965Z,32.42
2019-04-22T00:12:34.837Z,32.60
2019-04-22T00:17:48.248Z,32.74
2019-04-22T00:22:38.047Z,32.79
2019-04-22T00:27:47.904Z,32.91
2019-04-22T00:33:03.361Z,32.96
2019-04-22T00:38:11.104Z,33.00
2019-04-22T00:43:16.506Z,33.08
2019-04-22T00:48:37.985Z,33.13
2019-04-22T00:53:34.212Z,33.36
2019-04-22T00:58:36.528Z,33.46
2019-04-22T01:03:44.201Z,33.35
2019-04-22T01:08:54.581Z,33.56
2019-04-22T01:13:52.159Z,33.48
2019-04-22T01:18:55.151Z,33.55
2019-04-22T01:23:57.542Z,33.70
2019-04-22T01:29:00.926Z,33.83
2019-04-22T01:34:05.550Z,33.99
2019-04-22T01:39:25.100Z,34.08
2019-04-22T01:44:33.273Z,34.20
2019-04-22T01:59:41.759Z,34.41
2019-04-22T02:04:59.429Z,34.47
2019-04-22T02:10:07.324Z,34.75
2019-04-22T02:15:06.607Z,34.93
2019-04-22T02:20:13.648Z,34.87
2019-04-22T02:25:24.573Z,35.05
2019-04-22T02:30:36.393Z,34.98
2019-04-22T02:35:52.104Z,35.00
2019-04-22T02:40:58.698Z,34.76
2019-04-22T02:51:02.190Z,35.10
2019-04-22T02:56:12.929Z,35.08
2019-04-22T03:01:14.328Z,35.29
2019-04-22T03:06:29.641Z,35.37
2019-04-22T03:16:33.312Z,35.71
2019-04-22T03:21:31.204Z,35.91
2019-04-22T03:26:40.934Z,36.05
2019-04-22T03:52:18.666Z,36.84
2019-04-22T03:57:48.930Z,37.29
2019-04-22T04:02:45.739Z,37.25
2019-04-22T04:12:53.363Z,37.59
2019-04-22T04:28:24.554Z,37.79
2019-04-22T04:33:05.180Z,38.09
2019-04-22T04:38:05.118Z,38.24
2019-04-22T04:43:17.993Z,38.40
2019-04-22T04:48:36.983Z,38.53
2019-04-22T04:53:52.770Z,38.64
2019-04-22T04:58:47.767Z,38.74
2019-04-22T05:03:48.864Z,38.52
2019-04-22T05:29:13.874Z,38.46
2019-04-22T05:34:19.462Z,38.78
2019-04-22T05:39:15.735Z,38.91
2019-04-22T05:44:26.627Z,38.90
2019-04-22T05:49:28.961Z,38.76
2019-04-22T05:54:34.797Z,38.96
2019-04-22T05:59:45.945Z,39.04
2019-04-22T06:04:55.460Z,39.30
2019-04-22T06:09:57.761Z,39.45
2019-04-22T06:14:58.708Z,39.39
2019-04-22T06:20:03.038Z,39.21
2019-04-22T06:25:20.607Z,39.13
2019-04-22T06:30:21.801Z,38.97
2019-04-22T06:40:41.733Z,38.21
2019-04-22T06:45:39.718Z,38.02
2019-04-22T06:50:49.783Z,37.43
2019-04-22T06:55:51.675Z,37.27
2019-04-22T07:01:06.151Z,37.05
2019-04-22T07:06:11.454Z,36.60
2019-04-22T07:11:06.285Z,36.40
2019-04-22T07:21:26.041Z,36.16
2019-04-22T07:26:29.192Z,36.14
2019-04-22T07:31:37.225Z,36.34
2019-04-22T07:41:51.405Z,36.19
2019-04-22T07:52:03.609Z,35.89
2019-04-22T07:57:15.097Z,35.33
2019-04-22T08:02:16.016Z,34.58
2019-04-22T08:07:18.086Z,34.17
2019-04-22T08:12:26.865Z,33.93
2019-04-22T08:22:37.559Z,33.62
2019-04-22T08:27:43.620Z,33.58
2019-04-22T08:32:46.345Z,32.07
2019-04-22T08:38:02.047Z,31.32
2019-04-22T08:43:07.491Z,30.60
2019-04-22T08:48:07.726Z,29.89
2019-04-22T08:53:16.121Z,29.12
2019-04-22T08:58:37.553Z,29.28
2019-04-22T09:03:25.926Z,29.71
2019-04-22T09:08:34.168Z,28.92
2019-04-22T09:13:43.408Z,29.32
2019-04-22T09:18:48.699Z,29.57
2019-04-22T09:23:57.175Z,30.00
2019-04-22T09:28:59.488Z,30.39
2019-04-22T09:33:59.094Z,30.52
2019-04-22T09:39:12.144Z,30.56
2019-04-22T09:44:08.149Z,30.87
2019-04-22T09:49:21.123Z,31.54
2019-04-22T09:54:30.990Z,31.22
2019-04-22T09:59:27.859Z,30.90
2019-04-22T10:04:39.517Z,31.08
2019-04-22T10:14:49.209Z,31.26
2019-04-22T10:19:56.132Z,30.14
2019-04-22T10:25:01.990Z,29.89
2019-04-22T10:30:04.156Z,29.99
2019-04-22T10:35:13.163Z,29.01
2019-04-22T10:40:28.485Z,29.04
2019-04-22T10:45:34.382Z,28.26
2019-04-22T10:50:43.706Z,27.53
2019-04-22T10:55:49.865Z,26.49
2019-04-22T11:00:56.136Z,25.47
2019-04-22T11:06:01.288Z,24.45
2019-04-22T11:11:18.894Z,23.75
2019-04-22T11:16:11.772Z,23.38
2019-04-22T11:21:15.958Z,22.47
2019-04-22T11:26:20.209Z,22.20
2019-04-22T11:31:24.471Z,21.44
2019-04-22T11:36:30.731Z,21.68
2019-04-22T11:41:35.998Z,21.17
2019-04-22T11:46:41.092Z,21.10
2019-04-22T11:51:45.748Z,20.57
2019-04-22T11:56:49.974Z,20.42
2019-04-22T12:01:55.098Z,19.85
2019-04-22T12:07:00.114Z,19.66
2019-04-22T12:12:05.723Z,19.15
2019-04-22T12:17:11.239Z,20.31
2019-04-22T12:22:15.545Z,19.18
2019-04-22T12:27:22.036Z,18.71
2019-04-22T12:32:25.631Z,19.26
2019-04-22T12:37:38.056Z,18.73
2019-04-22T12:42:37.293Z,18.53
2019-04-22T12:47:42.240Z,17.61
2019-04-22T12:52:54.694Z,17.78
2019-04-22T12:57:58.599Z,18.42
2019-04-22T13:03:01.042Z,18.08
2019-04-22T13:08:05.739Z,18.92
2019-04-22T13:13:11.283Z,17.99
2019-04-22T13:18:27.045Z,17.68
2019-04-22T13:23:22.178Z,17.67
2019-04-22T13:28:27.257Z,19.42
2019-04-22T13:33:32.882Z,18.25
2019-04-22T13:38:38.643Z,18.18
2019-04-22T13:43:43.022Z,17.94
2019-04-22T13:49:14.571Z,17.71
2019-04-22T13:59:10.142Z,17.92
2019-04-22T14:04:12.453Z,17.77
2019-04-22T14:09:18.615Z,18.17
2019-04-22T14:14:23.996Z,18.02
2019-04-22T14:19:29.790Z,17.97
2019-04-22T14:24:34.504Z,18.21
2019-04-22T14:29:39.797Z,17.17
2019-04-22T14:34:44.952Z,16.52
2019-04-22T14:39:49.210Z,16.59
2019-04-22T14:45:26.134Z,16.97
2019-04-22T14:50:22.360Z,17.97
2019-04-22T14:55:13.779Z,17.10
2019-04-22T15:00:15.870Z,16.17
2019-04-22T15:05:21.985Z,16.29
2019-04-22T15:10:26.591Z,16.79
2019-04-22T15:15:48.951Z,16.99
2019-04-22T15:20:54.382Z,16.88
2019-04-22T15:25:59.088Z,17.58
2019-04-22T15:31:03.686Z,19.16
2019-04-22T15:36:07.995Z,20.54
2019-04-22T15:41:16.681Z,21.26
2019-04-22T15:46:20.898Z,21.77
2019-04-22T15:51:25.156Z,22.54
2019-04-22T15:56:30.650Z,23.42
2019-04-22T16:01:37.803Z,34.68
2019-04-22T16:06:41.181Z,24.06
2019-04-22T16:11:45.847Z,25.09
2019-04-22T16:16:50.522Z,25.96
2019-04-22T16:22:01.426Z,26.03
2019-04-22T16:27:04.850Z,25.85
2019-04-22T16:32:09.607Z,26.23
2019-04-22T16:37:14.740Z,26.77
2019-04-22T16:42:33.285Z,27.57
2019-04-22T16:47:25.734Z,27.84
2019-04-22T16:52:30.320Z,28.11
2019-04-22T16:57:35.849Z,28.32
2019-04-22T17:03:06.738Z,28.77
2019-04-22T17:08:12.313Z,29.39
2019-04-22T17:13:20.931Z,30.28
2019-04-22T17:18:23.230Z,29.90
2019-04-22T17:23:27.720Z,30.32
2019-04-22T17:28:33.337Z,30.67
2019-04-22T17:33:39.101Z,30.98
2019-04-22T17:38:54.365Z,31.08
2019-04-22T17:44:12.235Z,31.63
2019-04-22T17:49:23.659Z,31.95
2019-04-22T17:54:30.717Z,32.47
2019-04-22T17:59:33.935Z,32.84
2019-04-22T18:04:20.223Z,33.18
2019-04-22T18:10:23.747Z,33.62
2019-04-22T18:14:54.124Z,33.99
2019-04-22T18:19:54.790Z,34.53
2019-04-22T18:24:58.397Z,35.04
2019-04-22T18:30:04.139Z,35.32
2019-04-22T18:35:14.110Z,35.87
2019-04-22T18:40:21.838Z,36.47
2019-04-22T18:45:42.188Z,36.66
2019-04-22T18:50:45.214Z,36.93
2019-04-22T18:56:01.696Z,37.44
2019-04-22T19:00:52.777Z,37.87
2019-04-22T19:06:29.431Z,38.29
2019-04-22T19:11:22.324Z,38.33
2019-04-22T19:16:36.152Z,38.59
2019-04-22T19:21:37.988Z,38.82
2019-04-22T19:26:50.344Z,39.04
2019-04-22T19:31:51.242Z,39.45
2019-04-22T19:36:59.306Z,39.53
2019-04-22T19:42:09.558Z,39.66
2019-04-22T19:47:28.526Z,40.02
2019-04-22T19:52:18.942Z,40.10
2019-04-22T19:57:17.680Z,40.49
2019-04-22T20:03:07.294Z,40.71
2019-04-22T20:08:07.367Z,41.05
2019-04-22T20:13:15.086Z,41.29
2019-04-22T20:18:26.999Z,41.56
2019-04-22T20:23:18.197Z,41.93
2019-04-22T20:28:31.089Z,42.35
2019-04-22T20:33:35.251Z,42.52
2019-04-22T20:38:42.537Z,42.87
2019-04-22T20:43:54.627Z,43.09
2019-04-22T20:48:54.808Z,43.84
2019-04-22T20:54:03.820Z,43.50
2019-04-22T20:59:02.120Z,43.74
2019-04-22T21:03:58.647Z,43.74
2019-04-22T21:09:18.038Z,43.78
2019-04-22T21:14:19.654Z,43.96
2019-04-22T21:19:38.238Z,44.06
2019-04-22T21:24:32.262Z,44.21
2019-04-22T21:29:33.426Z,44.33
2019-04-22T21:34:52.733Z,44.62
2019-04-22T21:39:46.604Z,44.94
2019-04-22T21:44:51.111Z,44.96
2019-04-22T21:50:26.106Z,45.29
2019-04-22T21:55:10.230Z,45.53
2019-04-22T22:00:25.000Z,45.67
2019-04-22T22:05:19.000Z,45.74
2019-04-22T22:10:29.688Z,45.88
2019-04-22T22:15:37.670Z,45.99
2019-04-22T22:20:45.351Z,46.05
2019-04-22T22:25:44.125Z,46.16
2019-04-22T22:35:59.626Z,46.39
2019-04-22T22:40:44.008Z,46.42
2019-04-22T22:46:05.951Z,46.47
2019-04-22T22:51:18.570Z,46.71
2019-04-22T22:56:25.354Z,47.16
2019-04-22T23:01:34.948Z,46.86
2019-04-22T23:06:40.652Z,46.92
2019-04-22T23:11:57.542Z,47.02
2019-04-22T23:16:35.436Z,47.03
2019-04-22T23:21:38.500Z,47.16
2019-04-22T23:27:10.183Z,47.25
2019-04-22T23:32:18.512Z,47.34
2019-04-22T23:37:28.943Z,47.40
2019-04-22T23:42:44.807Z,47.31
2019-04-22T23:47:41.167Z,47.54
2019-04-22T23:52:58.973Z,47.47
2019-04-22T23:58:05.067Z,47.51
